Saratoga-Weather Station Historical Data
Daily Summary for July 07, 2022 Units:  Metric    English   Both
Daily Weekly Monthly Yearly
  High: Low: Average:
Temperature: 23.1 °C 18.5 °C 20 °C
Dew Point: 18.9 °C 15.9 °C 17 °C
Humidity: 86.4% 77.4% 83%
Wind Speed: 13.7km/h 0km/h 6.6km/h
Wind Gust: 10.5km/h - -
Wind- - SSE
Pressure: 1026.7 hPa 1024.2 hPa -
Precipitation: 0.0 mm    
 
 
Tabular Data for July 07, 2022
Time Temperature Dew Point Pressure Wind Wind Speed Wind Gust Humidity Rainfall Rate (Hourly) solar
00:04 19.7 °C 17.1 °C 1024.8 hPa Calm     85% 0.0 mm 0 W/m2
00:09 19.7 °C 17.1 °C 1024.8 hPa ESE 2.6 km/h 1.4 km/h 85% 0.0 mm 0 W/m2
00:14 19.8 °C 17.1 °C 1024.8 hPa SE 3.2 km/h 2.4 km/h 85% 0.0 mm 0 W/m2
00:19 19.8 °C 17.1 °C 1024.8 hPa SSE 1.3 km/h 0.6 km/h 85% 0.0 mm 0 W/m2
00:24 19.8 °C 17.2 °C 1024.9 hPa SE 1.7 km/h 1 km/h 85% 0.0 mm 0 W/m2
00:29 19.8 °C 17.2 °C 1024.8 hPa ENE 3.1 km/h 2.7 km/h 85% 0.0 mm 0 W/m2
00:34 19.7 °C 17.1 °C 1024.8 hPa South 4.8 km/h 3.9 km/h 85% 0.0 mm 0 W/m2
00:39 19.6 °C 17.2 °C 1024.8 hPa SE 5.2 km/h 4 km/h 85.8% 0.0 mm 0 W/m2
00:44 19.6 °C 17.2 °C 1024.8 hPa SSE 5.6 km/h 4 km/h 86% 0.0 mm 0 W/m2
00:49 19.5 °C 17.1 °C 1024.8 hPa South 5.3 km/h 3.7 km/h 86% 0.0 mm 0 W/m2
00:54 19.5 °C 17.1 °C 1024.8 hPa South 9.5 km/h 8.5 km/h 86% 0.0 mm 0 W/m2
00:59 19.4 °C 17 °C 1024.8 hPa South 6.3 km/h 4.5 km/h 86% 0.0 mm 0 W/m2
01:04 19.4 °C 17 °C 1024.8 hPa SSE 5.9 km/h 3.9 km/h 86% 0.0 mm 0 W/m2
01:09 19.4 °C 17 °C 1024.8 hPa SSW 5.6 km/h 4 km/h 86% 0.0 mm 0 W/m2
01:14 19.3 °C 16.9 °C 1024.8 hPa SSW 4.8 km/h 4 km/h 86% 0.0 mm 0 W/m2
01:19 19.3 °C 16.9 °C 1024.8 hPa SSW 7.3 km/h 6 km/h 86% 0.0 mm 0 W/m2
01:24 19.3 °C 16.9 °C 1024.7 hPa SSW 4.3 km/h 3.1 km/h 86% 0.0 mm 0 W/m2
01:29 19.3 °C 16.9 °C 1024.8 hPa SSW 9 km/h 8.4 km/h 86% 0.0 mm 0 W/m2
01:34 19.2 °C 16.8 °C 1024.8 hPa SSW 7.6 km/h 5.5 km/h 86% 0.0 mm 0 W/m2
01:39 19.2 °C 16.8 °C 1024.7 hPa SSW 6.2 km/h 4.8 km/h 86% 0.0 mm 0 W/m2
01:44 19.2 °C 16.8 °C 1024.7 hPa South 7.1 km/h 5.5 km/h 86% 0.0 mm 0 W/m2
01:49 19.2 °C 16.8 °C 1024.6 hPa SSW 5.7 km/h 4.3 km/h 86% 0.0 mm 0 W/m2
01:54 19.1 °C 16.7 °C 1024.6 hPa South 5.9 km/h 5 km/h 86% 0.0 mm 0 W/m2
01:59 19.1 °C 16.7 °C 1024.6 hPa SSE 6.8 km/h 5.8 km/h 86% 0.0 mm 0 W/m2
02:04 19.1 °C 16.7 °C 1024.5 hPa South 5.1 km/h 3.5 km/h 86% 0.0 mm 0 W/m2
02:09 19.1 °C 16.7 °C 1024.4 hPa SSW 6.1 km/h 4.3 km/h 86% 0.0 mm 0 W/m2
02:14 19.1 °C 16.6 °C 1024.4 hPa SSE 8 km/h 6.3 km/h 85.5% 0.0 mm 0 W/m2
02:19 19 °C 16.6 °C 1024.3 hPa South 7.4 km/h 5 km/h 85.8% 0.0 mm 0 W/m2
02:24 19.1 °C 16.7 °C 1024.3 hPa SSW 5 km/h 3.9 km/h 86% 0.0 mm 0 W/m2
02:29 19 °C 16.7 °C 1024.3 hPa SW 4.6 km/h 4.2 km/h 86% 0.0 mm 0 W/m2
02:34 19 °C 16.6 °C 1024.2 hPa South 4.8 km/h 3.5 km/h 86% 0.0 mm 0 W/m2
02:39 18.9 °C 16.5 °C 1024.2 hPa SSE 4.8 km/h 3.4 km/h 86% 0.0 mm 0 W/m2
02:44 18.9 °C 16.5 °C 1024.2 hPa SSE 3.8 km/h 1.1 km/h 86% 0.0 mm 0 W/m2
02:49 18.8 °C 16.4 °C 1024.2 hPa SSE 2.7 km/h 1.6 km/h 86% 0.0 mm 0 W/m2
02:54 18.8 °C 16.4 °C 1024.2 hPa SSE 3.5 km/h 1.8 km/h 86% 0.0 mm 0 W/m2
02:59 18.8 °C 16.4 °C 1024.3 hPa SSE 3.2 km/h 1.9 km/h 86.2% 0.0 mm 0 W/m2
03:04 18.8 °C 16.4 °C 1024.3 hPa SSE 2.4 km/h 1.9 km/h 86.3% 0.0 mm 0 W/m2
03:09 18.8 °C 16.5 °C 1024.3 hPa SSE 2.9 km/h 2.1 km/h 86.4% 0.0 mm 0 W/m2
03:14 18.9 °C 16.5 °C 1024.3 hPa SE 3 km/h 2.1 km/h 86.3% 0.0 mm 0 W/m2
03:19 18.9 °C 16.5 °C 1024.4 hPa ESE 2.5 km/h 2.7 km/h 86% 0.0 mm 0 W/m2
03:24 19 °C 16.6 °C 1024.4 hPa SE 4.5 km/h 4.2 km/h 86% 0.0 mm 0 W/m2
03:29 19 °C 16.6 °C 1024.3 hPa West 9.2 km/h 6.4 km/h 86% 0.0 mm 0 W/m2
03:34 19.1 °C 16.7 °C 1024.3 hPa WSW 10.5 km/h 7.4 km/h 86% 0.0 mm 0 W/m2
03:39 19.1 °C 16.7 °C 1024.3 hPa South 3.6 km/h 2.7 km/h 85.7% 0.0 mm 0 W/m2
03:44 19.2 °C 16.6 °C 1024.3 hPa SSE 5.4 km/h 4.7 km/h 85.3% 0.0 mm 0 W/m2
03:49 19.1 °C 16.6 °C 1024.3 hPa South 5.5 km/h 4.2 km/h 85% 0.0 mm 0 W/m2
03:54 19.1 °C 16.5 °C 1024.4 hPa SW 6.2 km/h 4.3 km/h 85% 0.0 mm 0 W/m2
03:59 19.1 °C 16.6 °C 1024.3 hPa SSW 4.3 km/h 3.7 km/h 85% 0.0 mm 0 W/m2
04:04 19.1 °C 16.5 °C 1024.3 hPa South 3.7 km/h 3.5 km/h 84.9% 0.0 mm 0 W/m2
04:09 19.2 °C 16.5 °C 1024.2 hPa SSW 4 km/h 3.1 km/h 84.3% 0.0 mm 0 W/m2
04:14 19.2 °C 16.4 °C 1024.2 hPa SSW 5.9 km/h 6.4 km/h 84% 0.0 mm 0 W/m2
04:19 19.2 °C 16.4 °C 1024.2 hPa South 4.7 km/h 4.2 km/h 84% 0.0 mm 0 W/m2
04:24 19.1 °C 16.3 °C 1024.2 hPa SW 5.4 km/h 4.8 km/h 84% 0.0 mm 0 W/m2
04:29 19.1 °C 16.3 °C 1024.2 hPa South 6.3 km/h 6.1 km/h 84% 0.0 mm 0 W/m2
04:34 19.1 °C 16.3 °C 1024.2 hPa South 9.2 km/h 6.8 km/h 84% 0.0 mm 0 W/m2
04:39 19.1 °C 16.3 °C 1024.3 hPa SSE 3.7 km/h 5 km/h 84% 0.0 mm 0 W/m2
04:44 19.1 °C 16.3 °C 1024.3 hPa SSW 5.2 km/h 4.8 km/h 84% 0.0 mm 0 W/m2
04:49 19.1 °C 16.3 °C 1024.3 hPa SSW 7.3 km/h 5.3 km/h 84% 0.0 mm 0 W/m2
04:54 19 °C 16.2 °C 1024.3 hPa South 7.3 km/h 4.7 km/h 84% 0.0 mm 0 W/m2
04:59 19.1 °C 16.3 °C 1024.3 hPa West 5.4 km/h 4.3 km/h 84% 0.0 mm 0 W/m2
05:04 19.1 °C 16.3 °C 1024.3 hPa South 4.7 km/h 2.6 km/h 84% 0.0 mm 0 W/m2
05:09 19 °C 16.2 °C 1024.3 hPa South 7.2 km/h 5.6 km/h 84% 0.0 mm 0 W/m2
05:14 19 °C 16.3 °C 1024.3 hPa South 8.9 km/h 6.8 km/h 84% 0.0 mm 0 W/m2
05:19 19.1 °C 16.3 °C 1024.3 hPa South 6.3 km/h 4.7 km/h 84% 0.0 mm 0 W/m2
05:24 19 °C 16.3 °C 1024.3 hPa South 7.3 km/h 5.3 km/h 84% 0.0 mm 0 W/m2
05:29 19.1 °C 16.3 °C 1024.3 hPa SW 6.9 km/h 5 km/h 84% 0.0 mm 0 W/m2
05:34 19.1 °C 16.3 °C 1024.3 hPa South 8.5 km/h 7.4 km/h 84% 0.0 mm 0 W/m2
05:39 19 °C 16.2 °C 1024.2 hPa South 7.3 km/h 5.8 km/h 83.8% 0.0 mm 0 W/m2
05:44 19 °C 16.2 °C 1024.2 hPa South 10.4 km/h 8.2 km/h 84% 0.0 mm 0 W/m2
05:49 19 °C 16.2 °C 1024.2 hPa South 7.8 km/h 8 km/h 84% 0.0 mm 0 W/m2
05:54 18.9 °C 16.1 °C 1024.2 hPa South 5.4 km/h 3.9 km/h 84% 0.0 mm 0 W/m2
05:59 18.9 °C 16.1 °C 1024.2 hPa SSE 6.4 km/h 6.3 km/h 84% 0.0 mm 0 W/m2
06:04 18.8 °C 16 °C 1024.2 hPa South 6 km/h 4 km/h 84% 0.0 mm 0 W/m2
06:09 18.8 °C 16 °C 1024.2 hPa South 8.1 km/h 5.5 km/h 84% 0.0 mm 0 W/m2
06:14 18.7 °C 15.9 °C 1024.2 hPa South 7.9 km/h 5.8 km/h 84% 0.0 mm 0 W/m2
06:19 18.7 °C 15.9 °C 1024.2 hPa SW 7.2 km/h 5.6 km/h 84% 0.0 mm 0 W/m2
06:24 18.6 °C 16 °C 1024.2 hPa SSE 6.7 km/h 5.6 km/h 84.6% 0.0 mm 0 W/m2
06:29 18.6 °C 16.1 °C 1024.2 hPa SSE 4.5 km/h 2.6 km/h 85% 0.0 mm 0 W/m2
06:34 18.6 °C 16 °C 1024.3 hPa SSE 5.2 km/h 3.9 km/h 85% 0.0 mm 0 W/m2
06:39 18.5 °C 16 °C 1024.4 hPa SW 5.8 km/h 6.3 km/h 85% 0.0 mm 0 W/m2
06:44 18.6 °C 16 °C 1024.4 hPa SSW 3.1 km/h 2.3 km/h 85% 0.0 mm 5 W/m2
06:49 18.6 °C 16 °C 1024.4 hPa SE 2.8 km/h 1.6 km/h 85% 0.0 mm 5 W/m2
06:54 18.6 °C 16.1 °C 1024.5 hPa NNE 4.5 km/h 3.4 km/h 85% 0.0 mm 5 W/m2
06:59 18.7 °C 16.1 °C 1024.5 hPa SSE 5.2 km/h 3.1 km/h 85% 0.0 mm 7 W/m2
07:04 18.8 °C 16.2 °C 1024.6 hPa SE 3.7 km/h 2.6 km/h 85% 0.0 mm 7 W/m2
07:09 18.8 °C 16.2 °C 1024.7 hPa SSE 4.4 km/h 3.1 km/h 85% 0.0 mm 7 W/m2
07:14 18.8 °C 16.3 °C 1024.7 hPa NNW 3.8 km/h 3.7 km/h 85% 0.0 mm 11 W/m2
07:19 18.8 °C 16.3 °C 1024.8 hPa SW 7.7 km/h 6 km/h 85% 0.0 mm 12 W/m2
07:24 18.9 °C 16.3 °C 1024.8 hPa SW 5.5 km/h 3.7 km/h 84.9% 0.0 mm 19 W/m2
07:29 19 °C 16.2 °C 1024.9 hPa South 5.7 km/h 3.9 km/h 84.1% 0.0 mm 28 W/m2
07:34 19 °C 16.2 °C 1024.9 hPa SSE 4.8 km/h 2.9 km/h 84% 0.0 mm 42 W/m2
07:39 19 °C 16.2 °C 1024.9 hPa South 4.4 km/h 3.1 km/h 84% 0.0 mm 47 W/m2
07:44 19 °C 16.3 °C 1024.9 hPa SE 4.4 km/h 2.3 km/h 84.4% 0.0 mm 42 W/m2
07:49 19 °C 16.3 °C 1024.9 hPa SSE 4.8 km/h 6.3 km/h 84.3% 0.0 mm 37 W/m2
07:54 19 °C 16.3 °C 1025.0 hPa South 5 km/h 6.3 km/h 84.4% 0.0 mm 54 W/m2
07:59 19 °C 16.3 °C 1025.0 hPa SSE 4.6 km/h 3.7 km/h 84.5% 0.0 mm 79 W/m2
08:04 19.1 °C 16.3 °C 1025.1 hPa NNE 3.7 km/h 3.1 km/h 84% 0.0 mm 86 W/m2
08:09 19.2 °C 16.4 °C 1025.1 hPa SSW 5.9 km/h 5 km/h 84% 0.0 mm 93 W/m2
08:14 19.2 °C 16.4 °C 1025.2 hPa South 4.3 km/h 3.2 km/h 84% 0.0 mm 93 W/m2
08:19 19.2 °C 16.5 °C 1025.2 hPa SSW 3.1 km/h 2.1 km/h 84% 0.0 mm 113 W/m2
08:24 19.3 °C 16.5 °C 1025.2 hPa SSE 5.6 km/h 4.3 km/h 84% 0.0 mm 137 W/m2
08:29 19.3 °C 16.4 °C 1025.1 hPa SSE 5.7 km/h 4.8 km/h 83.4% 0.0 mm 98 W/m2
08:34 19.3 °C 16.4 °C 1025.2 hPa South 4.3 km/h 2.6 km/h 83% 0.0 mm 72 W/m2
08:39 19.4 °C 16.5 °C 1025.2 hPa ESE 5.5 km/h 4.8 km/h 83.1% 0.0 mm 88 W/m2
08:44 19.5 °C 16.6 °C 1025.3 hPa SE 7.8 km/h 6.8 km/h 83% 0.0 mm 98 W/m2
08:49 19.6 °C 16.6 °C 1025.3 hPa SE 7 km/h 5.5 km/h 83% 0.0 mm 100 W/m2
08:54 19.7 °C 16.7 °C 1025.4 hPa SSE 7.9 km/h 6.9 km/h 83% 0.0 mm 105 W/m2
08:59 19.8 °C 16.8 °C 1025.4 hPa SSE 7.4 km/h 7.6 km/h 83% 0.0 mm 114 W/m2
09:04 19.9 °C 16.9 °C 1025.5 hPa ESE 5.9 km/h 4.5 km/h 83% 0.0 mm 171 W/m2
09:09 19.9 °C 16.8 °C 1025.4 hPa SSE 7.2 km/h 6.1 km/h 82.7% 0.0 mm 139 W/m2
09:14 20 °C 16.9 °C 1025.4 hPa SSE 8.5 km/h 7.6 km/h 82.2% 0.0 mm 346 W/m2
09:19 20 °C 16.8 °C 1025.4 hPa SSE 12.1 km/h 8.9 km/h 82% 0.0 mm 350 W/m2
09:24 20.1 °C 16.9 °C 1025.4 hPa SSE 12.1 km/h 10 km/h 82% 0.0 mm 345 W/m2
09:29 20.2 °C 17 °C 1025.4 hPa SSE 9.9 km/h 8.5 km/h 82% 0.0 mm 360 W/m2
09:34 20.3 °C 17 °C 1025.5 hPa SE 7.2 km/h 6.9 km/h 81.2% 0.0 mm 376 W/m2
09:39 20.4 °C 17 °C 1025.5 hPa SSE 8 km/h 6.3 km/h 81% 0.0 mm 399 W/m2
09:44 20.5 °C 17.1 °C 1025.5 hPa SSE 8 km/h 6.9 km/h 81% 0.0 mm 399 W/m2
09:49 20.7 °C 17.3 °C 1025.6 hPa SSE 9.1 km/h 7.9 km/h 81% 0.0 mm 445 W/m2
09:54 20.8 °C 17.2 °C 1025.6 hPa ESE 9.1 km/h 7.2 km/h 80.1% 0.0 mm 438 W/m2
09:59 20.8 °C 17.2 °C 1025.6 hPa ESE 9.1 km/h 6.9 km/h 80% 0.0 mm 420 W/m2
10:04 20.8 °C 17.3 °C 1025.6 hPa SSE 10.4 km/h 9.5 km/h 80% 0.0 mm 461 W/m2
10:09 20.8 °C 17.2 °C 1025.7 hPa SSE 10.6 km/h 8.4 km/h 79.9% 0.0 mm 476 W/m2
10:14 20.6 °C 17 °C 1025.8 hPa SSE 12.7 km/h 10.1 km/h 80% 0.0 mm 471 W/m2
10:19 20.4 °C 16.9 °C 1025.8 hPa SSE 10 km/h 8.5 km/h 80.2% 0.0 mm 229 W/m2
10:24 20.3 °C 16.8 °C 1025.9 hPa SSE 10.7 km/h 8.2 km/h 80.6% 0.0 mm 188 W/m2
10:29 20.2 °C 16.8 °C 1025.9 hPa SSE 7.9 km/h 8 km/h 81% 0.0 mm 200 W/m2
10:34 20.3 °C 16.9 °C 1025.9 hPa SSE 5.5 km/h 4 km/h 81% 0.0 mm 255 W/m2
10:39 20.4 °C 17 °C 1025.9 hPa South 6.6 km/h 5 km/h 81% 0.0 mm 622 W/m2
10:44 20.7 °C 17.3 °C 1025.9 hPa South 6.6 km/h 5.3 km/h 80.8% 0.0 mm 622 W/m2
10:49 21 °C 17.3 °C 1025.9 hPa SE 5.1 km/h 4.8 km/h 79.8% 0.0 mm 239 W/m2
10:54 20.8 °C 17.2 °C 1025.9 hPa SSW 6.9 km/h 5.6 km/h 80% 0.0 mm 643 W/m2
10:59 21.1 °C 17.4 °C 1025.9 hPa SE 7.5 km/h 7.1 km/h 79.7% 0.0 mm 617 W/m2
11:04 21.4 °C 17.6 °C 1025.9 hPa SE 7.3 km/h 6.3 km/h 79% 0.0 mm 615 W/m2
11:09 21.5 °C 17.5 °C 1025.9 hPa SW 11.7 km/h 8 km/h 78% 0.0 mm 645 W/m2
11:14 21.4 °C 17.6 °C 1026.0 hPa SSW 8.5 km/h 6.6 km/h 78.7% 0.0 mm 645 W/m2
11:19 21.7 °C 17.8 °C 1026.0 hPa SSW 6.4 km/h 6 km/h 78.2% 0.0 mm 677 W/m2
11:24 21.8 °C 17.8 °C 1026.0 hPa ENE 11.1 km/h 10.5 km/h 77.7% 0.0 mm 798 W/m2
11:29 21.9 °C 17.9 °C 1026.0 hPa ESE 6.2 km/h 6.3 km/h 77.9% 0.0 mm 821 W/m2
11:34 21.8 °C 17.7 °C 1026.0 hPa North 11 km/h 8 km/h 77.4% 0.0 mm 740 W/m2
11:39 21.7 °C 17.7 °C 1025.9 hPa South 7.2 km/h 6 km/h 78.1% 0.0 mm 809 W/m2
11:44 21.7 °C 17.9 °C 1025.9 hPa SE 9.4 km/h 6.6 km/h 79% 0.0 mm 784 W/m2
11:49 21.9 °C 17.9 °C 1026.0 hPa SSE 9.7 km/h 7.7 km/h 78.2% 0.0 mm 946 W/m2
11:54 21.9 °C 18 °C 1026.0 hPa SE 8.3 km/h 6.9 km/h 78.4% 0.0 mm 979 W/m2
11:59 22.2 °C 18.2 °C 1026.1 hPa NW 13.7 km/h 9.7 km/h 78.4% 0.0 mm 1044 W/m2
12:04 22 °C 18.1 °C 1026.1 hPa SSE 8.3 km/h 7.1 km/h 78.5% 0.0 mm 1044 W/m2
12:09 22 °C 18 °C 1026.1 hPa South 9.2 km/h 6.9 km/h 78.1% 0.0 mm 875 W/m2
12:14 21.7 °C 17.9 °C 1026.1 hPa SSE 10.7 km/h 9.3 km/h 79% 0.0 mm 874 W/m2
12:19 21.5 °C 17.8 °C 1026.2 hPa SSE 9.2 km/h 6.4 km/h 79.5% 0.0 mm 874 W/m2
12:24 21.7 °C 18.1 °C 1026.2 hPa SSE 9 km/h 8.2 km/h 80% 0.0 mm 622 W/m2
12:29 22 °C 18.2 °C 1026.3 hPa SE 11 km/h 8.4 km/h 79.4% 0.0 mm 659 W/m2
12:34 22.2 °C 18.4 °C 1026.3 hPa SE 7.6 km/h 6.4 km/h 79% 0.0 mm 633 W/m2
12:39 22.1 °C 18.2 °C 1026.3 hPa SE 6.8 km/h 6.3 km/h 78.6% 0.0 mm 559 W/m2
12:44 21.9 °C 18.1 °C 1026.3 hPa SSE 8.9 km/h 7.2 km/h 78.9% 0.0 mm 443 W/m2
12:49 21.7 °C 18 °C 1026.3 hPa SSE 8.7 km/h 6 km/h 79.7% 0.0 mm 466 W/m2
12:54 21.7 °C 18.1 °C 1026.3 hPa SE 10 km/h 9 km/h 80% 0.0 mm 425 W/m2
12:59 21.7 °C 18.1 °C 1026.3 hPa NE 7.1 km/h 8.4 km/h 80.1% 0.0 mm 473 W/m2
13:04 21.7 °C 18.1 °C 1026.3 hPa SE 7.3 km/h 6 km/h 80% 0.0 mm 431 W/m2
13:09 21.8 °C 18.3 °C 1026.4 hPa SE 10.5 km/h 7.9 km/h 80.3% 0.0 mm 452 W/m2
13:14 21.8 °C 18.2 °C 1026.5 hPa SE 8.3 km/h 6.3 km/h 79.9% 0.0 mm 343 W/m2
13:19 21.8 °C 18.3 °C 1026.5 hPa ESE 5 km/h 4.7 km/h 80.5% 0.0 mm 258 W/m2
13:24 21.8 °C 18.4 °C 1026.5 hPa ESE 8.3 km/h 9 km/h 81% 0.0 mm 301 W/m2
13:29 21.6 °C 18.1 °C 1026.6 hPa South 8.2 km/h 6.3 km/h 80.7% 0.0 mm 264 W/m2
13:34 21.4 °C 18.1 °C 1026.6 hPa South 6.2 km/h 5.3 km/h 81.5% 0.0 mm 262 W/m2
13:39 21.2 °C 18 °C 1026.7 hPa SSE 6.7 km/h 7.4 km/h 81.7% 0.0 mm 323 W/m2
13:44 21.5 °C 18.2 °C 1026.6 hPa SE 5.8 km/h 3.9 km/h 81.9% 0.0 mm 418 W/m2
13:49 21.7 °C 18.3 °C 1026.6 hPa SSE 10.8 km/h 7.7 km/h 81% 0.0 mm 478 W/m2
13:54 21.7 °C 18.3 °C 1026.5 hPa SSE 7.6 km/h 6.4 km/h 81% 0.0 mm 401 W/m2
13:59 21.8 °C 18.3 °C 1026.5 hPa SE 6.3 km/h 4.8 km/h 80.7% 0.0 mm 540 W/m2
14:04 22.1 °C 18.7 °C 1026.5 hPa SE 5.9 km/h 5.5 km/h 80.7% 0.0 mm 622 W/m2
14:09 22.5 °C 18.8 °C 1026.5 hPa ENE 6.7 km/h 6.1 km/h 79.8% 0.0 mm 559 W/m2
14:14 22.6 °C 18.8 °C 1026.4 hPa South 6.3 km/h 5 km/h 78.7% 0.0 mm 587 W/m2
14:19 22.4 °C 18.5 °C 1026.4 hPa SE 6.9 km/h 5.3 km/h 78.6% 0.0 mm 534 W/m2
14:24 22.7 °C 18.9 °C 1026.3 hPa ESE 8.1 km/h 6.6 km/h 79% 0.0 mm 1132 W/m2
14:29 23.1 °C 18.9 °C 1026.3 hPa NE 8.7 km/h 6.3 km/h 77.5% 0.0 mm 1079 W/m2
San Sebastian - Arriola Weather
Compliments of Weather Underground - 1 mb